Cosco Melbourne — V7IF5 — position and weather

sailwx.info

Track history (hours):
 
Tides and Currents Weather Stations Pressure Air Temp Water Temp Dewpoint Dewpoint Depression Visibility Wind Speed Wind Dir Waves Ship Positions

Cosco Melbourne

Last reported at 2014-Jul-28 23:33 UTC. Time now 2014-Jul-29 00:44 UTC.
Position N 35°54' W 008°13'.

Type: Ship (hazmat cat A). MMSI: 538002366.

Date/timePositionNaut miles runAvg speedWind from/ knotsBaromVisibWave heightAir tempDewpointWater temp
2014-Jul-28 23:33N 35°54' W 008°13'6319.5
2014-Jul-28 20:19N 35°54' W 009°31'4319.2
2014-Jul-28 18:04N 35°55' W 010°24'1219.2
2014-Jul-28 17:26N 35°55' W 010°39'9619.0
2014-Jul-28 12:22N 36°02' W 012°38'1619.2
2014-Jul-28 11:33N 36°03' W 012°58'45919.1
2014-Jul-27 11:33N 36°34' W 022°25'1918.9
2014-Jul-27 10:33N 36°36' W 022°49'1919.2
2014-Jul-27 09:33N 36°37' W 023°13'1919.0
2014-Jul-27 08:34N 36°38' W 023°36'1919.2
2014-Jul-27 07:33N 36°39' W 024°00'1919.3
2014-Jul-27 06:34N 36°41' W 024°24'1919.2
2014-Jul-27 05:34N 36°41' W 024°48'1919.0
2014-Jul-27 04:34N 36°43' W 025°12'1919.0
2014-Jul-27 03:34N 36°43' W 025°35'1919.2
2014-Jul-27 02:34N 36°44' W 025°59'1919.1
2014-Jul-27 01:34N 36°44' W 026°23'1919.2
2014-Jul-27 00:34N 36°43' W 026°47'1919.2
2014-Jul-26 23:33N 36°43' W 027°11'23518.9
2014-Jul-26 11:05N 36°37' W 032°04'  
2014-Jul-20 22:27N 26°32' W 078°46'0 0.0
2014-Jul-19 15:14N 26°32' W 078°46'4 1.8
2014-Jul-19 13:04N 26°28' W 078°48'4 7.0
2014-Jul-19 12:33N 26°25' W 078°50'4 0.8
2014-Jul-19 08:18N 26°22' W 078°52'0 0.2
2014-Jul-19 07:17N 26°22' W 078°52'4 1.1
2014-Jul-19 03:18N 26°26' W 078°53'2 1.3
2014-Jul-19 01:30N 26°28' W 078°54'  
Track history (hours):
 
Tides and Currents Weather Stations Pressure Air Temp Water Temp Dewpoint Dewpoint Depression Visibility Wind Speed Wind Dir Waves Ship Positions

Cosco Melbourne

Last reported at 2014-Jul-28 23:33 UTC. Time now 2014-Jul-29 00:44 UTC.
Position N 35°54' W 008°13'.

Type: Ship (hazmat cat A). MMSI: 538002366.

Date/timePositionNaut miles runAvg speedWind from/ knotsBaromVisibWave heightAir tempDewpointWater temp
2014-Jul-28 23:33N 35°54' W 008°13'6319.5
2014-Jul-28 20:19N 35°54' W 009°31'4319.2
2014-Jul-28 18:04N 35°55' W 010°24'1219.2
2014-Jul-28 17:26N 35°55' W 010°39'9619.0
2014-Jul-28 12:22N 36°02' W 012°38'1619.2
2014-Jul-28 11:33N 36°03' W 012°58'45919.1
2014-Jul-27 11:33N 36°34' W 022°25'1918.9
2014-Jul-27 10:33N 36°36' W 022°49'1919.2
2014-Jul-27 09:33N 36°37' W 023°13'1919.0
2014-Jul-27 08:34N 36°38' W 023°36'1919.2
2014-Jul-27 07:33N 36°39' W 024°00'1919.3
2014-Jul-27 06:34N 36°41' W 024°24'1919.2
2014-Jul-27 05:34N 36°41' W 024°48'1919.0
2014-Jul-27 04:34N 36°43' W 025°12'1919.0
2014-Jul-27 03:34N 36°43' W 025°35'1919.2
2014-Jul-27 02:34N 36°44' W 025°59'1919.1
2014-Jul-27 01:34N 36°44' W 026°23'1919.2
2014-Jul-27 00:34N 36°43' W 026°47'1919.2
2014-Jul-26 23:33N 36°43' W 027°11'23518.9
2014-Jul-26 11:05N 36°37' W 032°04'  
2014-Jul-20 22:27N 26°32' W 078°46'0 0.0
2014-Jul-19 15:14N 26°32' W 078°46'4 1.8
2014-Jul-19 13:04N 26°28' W 078°48'4 7.0
2014-Jul-19 12:33N 26°25' W 078°50'4 0.8
2014-Jul-19 08:18N 26°22' W 078°52'0 0.2
2014-Jul-19 07:17N 26°22' W 078°52'4 1.1
2014-Jul-19 03:18N 26°26' W 078°53'2 1.3
2014-Jul-19 01:30N 26°28' W 078°54'  

Dump ship's entire track history